createdAt,value
2016-06-01T00:00:05.507Z,17.52
2016-06-01T00:00:15.522Z,17.53
2016-06-01T00:00:25.522Z,17.5
2016-06-01T00:00:35.522Z,17.54
2016-06-01T00:00:45.541Z,17.54
2016-06-01T00:00:55.541Z,17.49
2016-06-01T00:01:05.541Z,17.42
2016-06-01T00:01:15.556Z,17.47
2016-06-01T00:01:25.556Z,17.46
2016-06-01T00:01:35.556Z,17.46
2016-06-01T00:01:45.559Z,17.49
2016-06-01T00:01:55.575Z,17.49
2016-06-01T00:02:05.575Z,17.54
2016-06-01T00:02:15.575Z,17.5
2016-06-01T00:02:25.591Z,17.49
2016-06-01T00:02:35.591Z,17.49
2016-06-01T00:02:45.594Z,17.52
2016-06-01T00:02:55.609Z,17.5
2016-06-01T00:03:05.609Z,17.5
2016-06-01T00:03:15.609Z,17.38
2016-06-01T00:03:25.625Z,17.49
2016-06-01T00:03:35.625Z,17.41
2016-06-01T00:03:45.627Z,17.41
2016-06-01T00:03:55.643Z,17.38
2016-06-01T00:04:05.643Z,17.39
2016-06-01T00:04:15.643Z,17.34
2016-06-01T00:04:25.643Z,17.35
2016-06-01T00:04:35.658Z,17.41
2016-06-01T00:04:45.661Z,17.46
2016-06-01T00:04:55.677Z,17.47
2016-06-01T00:05:05.677Z,17.39
2016-06-01T00:05:15.677Z,17.42
2016-06-01T00:05:25.677Z,17.41
2016-06-01T00:05:35.692Z,17.37
2016-06-01T00:05:45.694Z,17.39
2016-06-01T00:05:55.694Z,17.35
2016-06-01T00:06:05.710Z,17.41
2016-06-01T00:06:15.710Z,17.31
2016-06-01T00:06:25.710Z,17.41
2016-06-01T00:06:35.726Z,17.37
2016-06-01T00:06:45.729Z,17.38
2016-06-01T00:06:55.729Z,17.37
2016-06-01T00:07:05.744Z,17.41
2016-06-01T00:07:15.744Z,17.35
2016-06-01T00:07:25.744Z,17.37
2016-06-01T00:07:35.744Z,17.35
2016-06-01T00:07:45.763Z,17.35
2016-06-01T00:07:55.779Z,17.34
2016-06-01T00:08:05.779Z,17.31
2016-06-01T00:08:15.779Z,17.31
2016-06-01T00:08:26.154Z,17.31
2016-06-01T00:08:35.779Z,17.37
2016-06-01T00:08:45.796Z,17.27
2016-06-01T00:08:55.796Z,17.31
2016-06-01T00:09:05.796Z,17.27
2016-06-01T00:09:15.812Z,17.27
2016-06-01T00:09:25.812Z,17.37
2016-06-01T00:09:35.812Z,17.27
2016-06-01T00:09:45.837Z,17.31
2016-06-01T00:09:55.852Z,17.34
2016-06-01T00:10:05.852Z,17.31
2016-06-01T00:10:15.852Z,17.23
2016-06-01T00:10:25.868Z,17.31
2016-06-01T00:10:35.868Z,17.31
2016-06-01T00:10:45.897Z,17.24
2016-06-01T00:10:55.913Z,17.3
2016-06-01T00:11:05.913Z,17.22
2016-06-01T00:11:15.913Z,17.22
2016-06-01T00:11:25.928Z,17.24
2016-06-01T00:11:35.928Z,17.27
2016-06-01T00:11:45.956Z,17.28
2016-06-01T00:11:55.956Z,17.24
2016-06-01T00:12:05.972Z,17.27
2016-06-01T00:12:15.972Z,17.24
2016-06-01T00:12:25.972Z,17.24
2016-06-01T00:12:35.988Z,17.27
2016-06-01T00:12:46.018Z,17.27
2016-06-01T00:12:56.033Z,17.22
2016-06-01T00:13:06.033Z,17.23
2016-06-01T00:13:16.033Z,17.27
2016-06-01T00:13:26.033Z,17.24
2016-06-01T00:13:36.049Z,17.27
2016-06-01T00:13:46.092Z,17.2
2016-06-01T00:13:56.092Z,17.24
2016-06-01T00:14:06.092Z,17.24
2016-06-01T00:14:16.092Z,17.23
2016-06-01T00:14:26.092Z,17.23
2016-06-01T00:14:36.092Z,17.24
2016-06-01T00:14:46.124Z,17.27
2016-06-01T00:14:56.124Z,17.27
2016-06-01T00:15:06.124Z,17.23
2016-06-01T00:15:16.140Z,17.2
2016-06-01T00:15:26.140Z,17.23
2016-06-01T00:15:36.140Z,17.19
2016-06-01T00:15:46.166Z,17.17
2016-06-01T00:15:56.166Z,17.2
2016-06-01T00:16:06.166Z,17.17
2016-06-01T00:16:16.166Z,17.14
2016-06-01T00:16:26.182Z,17.19
2016-06-01T00:16:36.182Z,17.2
2016-06-01T00:16:46.211Z,17.22
2016-06-01T00:16:56.211Z,17.2
2016-06-01T00:17:06.211Z,17.14
2016-06-01T00:17:16.211Z,17.17
2016-06-01T00:17:26.226Z,17.19
2016-06-01T00:17:36.226Z,17.07
2016-06-01T00:17:46.254Z,17.05
2016-06-01T00:17:56.254Z,17.16
2016-06-01T00:18:06.254Z,17.19
2016-06-01T00:18:16.254Z,17.16
2016-06-01T00:18:26.269Z,17.13
2016-06-01T00:18:36.269Z,17.19
2016-06-01T00:18:46.281Z,17.14
2016-06-01T00:18:56.297Z,17.2
2016-06-01T00:19:06.297Z,17.14
2016-06-01T00:19:16.297Z,17.16
2016-06-01T00:19:26.313Z,17.19
2016-06-01T00:19:36.313Z,17.2
2016-06-01T00:19:46.321Z,17.22
2016-06-01T00:19:56.321Z,17.22
2016-06-01T00:20:06.336Z,17.23
2016-06-01T00:20:16.336Z,17.24
2016-06-01T00:20:26.336Z,17.2
2016-06-01T00:20:36.352Z,17.24
2016-06-01T00:20:46.358Z,17.2
2016-06-01T00:20:56.374Z,17.2
2016-06-01T00:21:06.374Z,17.22
2016-06-01T00:21:16.374Z,17.17
2016-06-01T00:21:26.374Z,17.14
2016-06-01T00:21:36.389Z,17.16
2016-06-01T00:21:46.395Z,17.17
2016-06-01T00:21:56.395Z,17.2
2016-06-01T00:22:06.395Z,17.19
2016-06-01T00:22:16.411Z,17.13
2016-06-01T00:22:26.411Z,17.22
2016-06-01T00:22:36.411Z,17.12
2016-06-01T00:22:46.417Z,17.2
2016-06-01T00:22:56.432Z,17.12
2016-06-01T00:23:06.432Z,17.19
2016-06-01T00:23:16.432Z,17.13
2016-06-01T00:23:26.448Z,17.14
2016-06-01T00:23:36.464Z,17.13
2016-06-01T00:23:46.721Z,17.19
2016-06-01T00:23:56.471Z,17.13
2016-06-01T00:24:06.471Z,17.12
2016-06-01T00:24:16.471Z,17.19
2016-06-01T00:24:26.486Z,17.16
2016-06-01T00:24:36.486Z,17.19
2016-06-01T00:24:46.505Z,17.13
2016-06-01T00:24:56.489Z,17.23
2016-06-01T00:25:06.505Z,17.19
2016-06-01T00:25:16.521Z,17.19
2016-06-01T00:25:26.630Z,17.19
2016-06-01T00:25:36.552Z,17.2
2016-06-01T00:25:46.525Z,17.17
2016-06-01T00:25:56.540Z,17.17
2016-06-01T00:26:06.540Z,17.13
2016-06-01T00:26:16.540Z,17.2
2016-06-01T00:26:26.556Z,17.2
2016-06-01T00:26:36.556Z,17.19
2016-06-01T00:26:46.560Z,17.13
2016-06-01T00:26:56.560Z,17.09
2016-06-01T00:27:06.575Z,17.14
2016-06-01T00:27:16.575Z,17.14
2016-06-01T00:27:26.575Z,17.01
2016-06-01T00:27:36.575Z,17.07
2016-06-01T00:27:46.595Z,17.07
2016-06-01T00:27:56.595Z,16.97
2016-06-01T00:28:06.595Z,16.97
2016-06-01T00:28:16.611Z,16.95
2016-06-01T00:28:26.611Z,16.95
2016-06-01T00:28:36.626Z,16.98
2016-06-01T00:28:46.630Z,16.99
2016-06-01T00:28:56.630Z,16.97
2016-06-01T00:29:06.630Z,16.97
2016-06-01T00:29:16.646Z,16.99
2016-06-01T00:29:26.646Z,16.95
2016-06-01T00:29:36.646Z,16.94
2016-06-01T00:29:46.665Z,16.92
2016-06-01T00:29:56.665Z,16.87
2016-06-01T00:30:06.680Z,16.92
2016-06-01T00:30:16.665Z,16.89
2016-06-01T00:30:26.680Z,16.94
2016-06-01T00:30:36.680Z,16.89
2016-06-01T00:30:46.683Z,16.92
2016-06-01T00:30:56.699Z,16.86
2016-06-01T00:31:06.699Z,16.98
2016-06-01T00:31:16.699Z,16.89
2016-06-01T00:31:26.714Z,16.92
2016-06-01T00:31:36.714Z,16.84
2016-06-01T00:31:46.717Z,16.8
2016-06-01T00:31:56.733Z,16.86
2016-06-01T00:32:06.733Z,16.86
2016-06-01T00:32:16.733Z,16.86
2016-06-01T00:32:26.749Z,16.84
2016-06-01T00:32:36.749Z,16.83
2016-06-01T00:32:46.752Z,16.86
2016-06-01T00:32:56.767Z,16.83
2016-06-01T00:33:06.767Z,16.74
2016-06-01T00:33:16.767Z,16.87
2016-06-01T00:33:26.767Z,16.91
2016-06-01T00:33:36.783Z,16.92
2016-06-01T00:33:46.802Z,16.86
2016-06-01T00:33:56.786Z,16.84
2016-06-01T00:34:06.802Z,16.86
2016-06-01T00:34:16.802Z,16.87
2016-06-01T00:34:26.802Z,16.79
2016-06-01T00:34:36.802Z,16.83
2016-06-01T00:34:46.820Z,16.83
2016-06-01T00:34:56.820Z,16.79
2016-06-01T00:35:06.820Z,16.84
2016-06-01T00:35:16.820Z,16.83
2016-06-01T00:35:26.836Z,16.8
2016-06-01T00:35:36.836Z,16.86
2016-06-01T00:35:46.854Z,16.87
2016-06-01T00:35:56.854Z,16.82
2016-06-01T00:36:06.854Z,16.84
2016-06-01T00:36:16.854Z,16.83
2016-06-01T00:36:26.870Z,16.82
2016-06-01T00:36:36.870Z,16.84
2016-06-01T00:36:46.873Z,16.86
2016-06-01T00:36:56.889Z,16.86
2016-06-01T00:37:06.889Z,16.86
2016-06-01T00:37:16.889Z,16.79
2016-06-01T00:37:26.904Z,16.86
2016-06-01T00:37:36.904Z,16.89
2016-06-01T00:37:46.906Z,16.8
2016-06-01T00:37:56.906Z,16.84
2016-06-01T00:38:06.922Z,16.89
2016-06-01T00:38:16.922Z,16.79
2016-06-01T00:38:27.234Z,16.8
2016-06-01T00:38:36.938Z,16.82
2016-06-01T00:38:46.941Z,16.83
2016-06-01T00:38:56.941Z,16.86
2016-06-01T00:39:06.956Z,16.97
2016-06-01T00:39:17.081Z,16.89
2016-06-01T00:39:26.956Z,16.92
2016-06-01T00:39:36.972Z,16.89
2016-06-01T00:39:46.975Z,16.91
2016-06-01T00:39:56.975Z,16.98
2016-06-01T00:40:06.990Z,16.98
2016-06-01T00:40:16.990Z,16.91
2016-06-01T00:40:26.990Z,16.92
2016-06-01T00:40:36.990Z,16.87
2016-06-01T00:40:47.009Z,16.98
2016-06-01T00:40:57.009Z,17.01
2016-06-01T00:41:07.009Z,16.95
2016-06-01T00:41:17.025Z,16.92
2016-06-01T00:41:27.025Z,16.92
2016-06-01T00:41:37.025Z,16.86
2016-06-01T00:41:47.027Z,16.97
2016-06-01T00:41:57.042Z,16.94
2016-06-01T00:42:07.042Z,16.86
2016-06-01T00:42:17.042Z,16.95
2016-06-01T00:42:27.058Z,16.94
2016-06-01T00:42:37.058Z,16.86
2016-06-01T00:42:47.061Z,16.86
2016-06-01T00:42:57.077Z,16.87
2016-06-01T00:43:07.077Z,16.89
2016-06-01T00:43:17.092Z,16.89
2016-06-01T00:43:27.092Z,16.83
2016-06-01T00:43:37.092Z,16.79
2016-06-01T00:43:47.094Z,16.92
2016-06-01T00:43:57.110Z,16.91
2016-06-01T00:44:07.110Z,16.89
2016-06-01T00:44:17.110Z,16.86
2016-06-01T00:44:27.110Z,16.82
2016-06-01T00:44:37.125Z,16.84
2016-06-01T00:44:47.128Z,16.83
2016-06-01T00:44:57.128Z,16.89
2016-06-01T00:45:07.144Z,16.89
2016-06-01T00:45:17.144Z,16.87
2016-06-01T00:45:27.144Z,16.97
2016-06-01T00:45:37.144Z,16.95
2016-06-01T00:45:47.163Z,16.97
2016-06-01T00:45:57.163Z,16.97
2016-06-01T00:46:07.163Z,16.95
2016-06-01T00:46:17.178Z,16.97
2016-06-01T00:46:27.178Z,16.94
2016-06-01T00:46:37.178Z,16.99
2016-06-01T00:46:47.196Z,17.01
2016-06-01T00:46:57.196Z,16.95
2016-06-01T00:47:07.196Z,16.95
2016-06-01T00:47:17.196Z,16.95
2016-06-01T00:47:27.212Z,16.95
2016-06-01T00:47:37.212Z,16.95
2016-06-01T00:47:47.215Z,16.99
2016-06-01T00:47:57.230Z,16.94
2016-06-01T00:48:07.230Z,16.99
2016-06-01T00:48:17.230Z,16.95
2016-06-01T00:48:27.246Z,16.95
2016-06-01T00:48:37.246Z,16.94
2016-06-01T00:48:47.249Z,16.92
2016-06-01T00:48:57.264Z,16.98
2016-06-01T00:49:07.264Z,16.95
2016-06-01T00:49:17.264Z,17.01
2016-06-01T00:49:27.264Z,16.97
2016-06-01T00:49:37.280Z,16.95
2016-06-01T00:49:47.283Z,16.97
2016-06-01T00:49:57.283Z,16.97
2016-06-01T00:50:07.299Z,17.05
2016-06-01T00:50:17.299Z,16.97
2016-06-01T00:50:27.299Z,17.09
2016-06-01T00:50:37.314Z,17.07
2016-06-01T00:50:47.316Z,17.04
2016-06-01T00:50:57.316Z,16.97
2016-06-01T00:51:07.332Z,17.09
2016-06-01T00:51:17.332Z,17.07
2016-06-01T00:51:27.332Z,17.05
2016-06-01T00:51:37.348Z,17.09
2016-06-01T00:51:47.351Z,17.01
2016-06-01T00:51:57.351Z,17.01
2016-06-01T00:52:07.351Z,17.05
2016-06-01T00:52:17.366Z,17.04
2016-06-01T00:52:27.366Z,17.07
2016-06-01T00:52:37.366Z,17.07
2016-06-01T00:52:47.385Z,17.09
2016-06-01T00:52:57.385Z,17.12
2016-06-01T00:53:07.385Z,17.04
2016-06-01T00:53:17.400Z,17.1
2016-06-01T00:53:28.307Z,17.02
2016-06-01T00:53:37.400Z,17.01
2016-06-01T00:53:47.402Z,17.02
2016-06-01T00:53:57.418Z,17.02
2016-06-01T00:54:07.418Z,16.97
2016-06-01T00:54:17.418Z,16.94
2016-06-01T00:54:27.434Z,16.99
2016-06-01T00:54:38.199Z,17.04
2016-06-01T00:54:47.437Z,16.99
2016-06-01T00:54:57.452Z,17.01
2016-06-01T00:55:07.452Z,17.01
2016-06-01T00:55:17.452Z,16.99
2016-06-01T00:55:27.468Z,16.94
2016-06-01T00:55:37.468Z,16.97
2016-06-01T00:55:47.471Z,17.05
2016-06-01T00:55:57.471Z,16.98
2016-06-01T00:56:07.487Z,16.92
2016-06-01T00:56:17.487Z,16.97
2016-06-01T00:56:27.502Z,16.97
2016-06-01T00:56:37.502Z,17.01
2016-06-01T00:56:47.504Z,16.94
2016-06-01T00:56:57.504Z,16.97
2016-06-01T00:57:07.520Z,17.04
2016-06-01T00:57:17.520Z,16.97
2016-06-01T00:57:27.520Z,16.97
2016-06-01T00:57:37.520Z,17.09
2016-06-01T00:57:47.538Z,17.1
2016-06-01T00:57:57.538Z,17.04
2016-06-01T00:58:07.538Z,17.13
2016-06-01T00:58:17.554Z,17.07
2016-06-01T00:58:27.554Z,17.1
2016-06-01T00:58:37.554Z,17.13
2016-06-01T00:58:47.557Z,17.1
2016-06-01T00:58:57.573Z,17.09
2016-06-01T00:59:07.573Z,17.07
2016-06-01T00:59:17.588Z,17.07
2016-06-01T00:59:27.588Z,17.07
2016-06-01T00:59:37.588Z,17.04
2016-06-01T00:59:47.590Z,17.1
2016-06-01T00:59:57.606Z,17.04
2016-06-01T01:00:07.606Z,17.09
2016-06-01T01:00:17.622Z,17.13
2016-06-01T01:00:27.622Z,17.09
2016-06-01T01:00:37.622Z,17.12
2016-06-01T01:00:47.625Z,17.12
2016-06-01T01:00:57.640Z,17.09
2016-06-01T01:01:07.640Z,17.02
2016-06-01T01:01:17.640Z,17.1
2016-06-01T01:01:27.640Z,17.09
2016-06-01T01:01:37.656Z,17.1
2016-06-01T01:01:47.659Z,17.2
2016-06-01T01:01:57.659Z,17.17
2016-06-01T01:02:07.674Z,17.1
2016-06-01T01:02:17.674Z,17.12
2016-06-01T01:02:27.674Z,17.1
2016-06-01T01:02:37.690Z,17.12
2016-06-01T01:02:47.693Z,17.13
2016-06-01T01:02:57.693Z,17.1
2016-06-01T01:03:07.709Z,17.2
2016-06-01T01:03:17.709Z,17.12
2016-06-01T01:03:27.709Z,17.09
2016-06-01T01:03:37.724Z,17.07
2016-06-01T01:03:47.726Z,17.12
2016-06-01T01:03:57.726Z,17.12
2016-06-01T01:04:07.726Z,17.16
2016-06-01T01:04:17.742Z,17.16
2016-06-01T01:04:27.742Z,17.12
2016-06-01T01:04:37.742Z,17.07
2016-06-01T01:04:47.761Z,17.09
2016-06-01T01:04:57.761Z,17.04
2016-06-01T01:05:07.761Z,17.12
2016-06-01T01:05:17.776Z,17.05
2016-06-01T01:05:27.776Z,17.07
2016-06-01T01:05:37.776Z,17.04
2016-06-01T01:05:47.778Z,17.12
2016-06-01T01:05:57.794Z,16.97
2016-06-01T01:06:07.794Z,16.98
2016-06-01T01:06:17.794Z,16.97
2016-06-01T01:06:27.809Z,17.01
2016-06-01T01:06:37.809Z,17.01
2016-06-01T01:06:47.812Z,16.94
2016-06-01T01:06:57.828Z,16.92
2016-06-01T01:07:07.828Z,16.97
2016-06-01T01:07:17.844Z,16.97
2016-06-01T01:07:27.844Z,16.92
2016-06-01T01:07:37.844Z,16.89
2016-06-01T01:07:47.847Z,16.89
2016-06-01T01:07:57.862Z,16.86
2016-06-01T01:08:07.862Z,16.97
2016-06-01T01:08:17.862Z,16.83
2016-06-01T01:08:27.862Z,16.84
2016-06-01T01:08:37.878Z,16.89
2016-06-01T01:08:47.881Z,16.8
2016-06-01T01:08:57.881Z,16.89
2016-06-01T01:09:07.897Z,16.86
2016-06-01T01:09:18.256Z,16.87
2016-06-01T01:09:27.897Z,16.84
2016-06-01T01:09:37.912Z,16.83
2016-06-01T01:09:47.914Z,16.89
2016-06-01T01:09:57.914Z,16.84
2016-06-01T01:10:07.914Z,16.82
2016-06-01T01:10:17.930Z,16.82
2016-06-01T01:10:27.930Z,16.86
2016-06-01T01:10:37.930Z,16.87
2016-06-01T01:10:47.948Z,16.83
2016-06-01T01:10:57.948Z,16.86
2016-06-01T01:11:07.964Z,16.91
2016-06-01T01:11:17.948Z,16.86
2016-06-01T01:11:27.964Z,16.86
2016-06-01T01:11:37.964Z,16.86
2016-06-01T01:11:47.983Z,16.86
2016-06-01T01:11:57.983Z,16.84
2016-06-01T01:12:07.983Z,16.86
2016-06-01T01:12:17.998Z,16.86
2016-06-01T01:12:27.998Z,16.92
2016-06-01T01:12:37.998Z,16.82
2016-06-01T01:12:48.000Z,16.84
2016-06-01T01:12:58.000Z,16.83
2016-06-01T01:13:08.016Z,16.82
2016-06-01T01:13:18.016Z,16.8
2016-06-01T01:13:28.016Z,16.77
2016-06-01T01:13:38.032Z,16.82
2016-06-01T01:13:48.050Z,16.82
2016-06-01T01:13:58.035Z,16.76
2016-06-01T01:14:08.050Z,16.8
2016-06-01T01:14:18.050Z,16.69
2016-06-01T01:14:28.050Z,16.73
2016-06-01T01:14:38.066Z,16.77
2016-06-01T01:14:48.069Z,16.66
2016-06-01T01:14:58.069Z,16.69
2016-06-01T01:15:08.084Z,16.73
2016-06-01T01:15:18.084Z,16.76
2016-06-01T01:15:28.084Z,16.66
2016-06-01T01:15:38.084Z,16.69
2016-06-01T01:15:48.103Z,16.73
2016-06-01T01:15:58.103Z,16.69
2016-06-01T01:16:08.103Z,16.68
2016-06-01T01:16:18.119Z,16.69
2016-06-01T01:16:28.119Z,16.69
2016-06-01T01:16:38.134Z,16.66
2016-06-01T01:16:48.121Z,16.69
2016-06-01T01:16:58.136Z,16.66
2016-06-01T01:17:08.136Z,16.65
2016-06-01T01:17:18.152Z,16.69
2016-06-01T01:17:28.152Z,16.65
2016-06-01T01:17:38.152Z,16.64
2016-06-01T01:17:48.171Z,16.64
2016-06-01T01:17:58.171Z,16.66
2016-06-01T01:18:08.171Z,16.62
2016-06-01T01:18:18.171Z,16.68
2016-06-01T01:18:28.186Z,16.58
2016-06-01T01:18:38.186Z,16.58
2016-06-01T01:18:48.188Z,16.61
2016-06-01T01:18:58.204Z,16.64
2016-06-01T01:19:08.204Z,16.58
2016-06-01T01:19:18.204Z,16.62
2016-06-01T01:19:28.219Z,16.59
2016-06-01T01:19:38.219Z,16.62
2016-06-01T01:19:48.222Z,16.58
2016-06-01T01:19:58.238Z,16.59
2016-06-01T01:20:08.238Z,16.58
2016-06-01T01:20:18.238Z,16.61
2016-06-01T01:20:28.238Z,16.58
2016-06-01T01:20:38.254Z,16.64
2016-06-01T01:20:48.257Z,16.64
2016-06-01T01:20:58.272Z,16.55
2016-06-01T01:21:08.272Z,16.59
2016-06-01T01:21:18.272Z,16.59
2016-06-01T01:21:28.288Z,16.59
2016-06-01T01:21:38.272Z,16.51
2016-06-01T01:21:48.291Z,16.64
2016-06-01T01:21:58.291Z,16.55
2016-06-01T01:22:08.291Z,16.46
2016-06-01T01:22:18.307Z,16.58
2016-06-01T01:22:28.307Z,16.58
2016-06-01T01:22:38.307Z,16.55
2016-06-01T01:22:48.324Z,16.59
2016-06-01T01:22:58.324Z,16.49
2016-06-01T01:23:08.324Z,16.55
2016-06-01T01:23:18.340Z,16.54
2016-06-01T01:23:28.340Z,16.55
2016-06-01T01:23:38.340Z,16.54
2016-06-01T01:23:48.468Z,16.62
2016-06-01T01:23:58.358Z,16.55
2016-06-01T01:24:08.905Z,16.51
2016-06-01T01:24:18.358Z,16.61
2016-06-01T01:24:28.358Z,16.57
2016-06-01T01:24:38.374Z,16.55
2016-06-01T01:24:48.377Z,16.57
2016-06-01T01:24:58.393Z,16.55
2016-06-01T01:25:08.393Z,16.51
2016-06-01T01:25:18.393Z,16.57
2016-06-01T01:25:28.393Z,16.51
2016-06-01T01:25:38.408Z,16.51
2016-06-01T01:25:48.410Z,16.54
2016-06-01T01:25:58.410Z,16.57
2016-06-01T01:26:08.426Z,16.54
2016-06-01T01:26:18.426Z,16.51
2016-06-01T01:26:28.426Z,16.57
2016-06-01T01:26:38.426Z,16.54
2016-06-01T01:26:48.445Z,16.51
2016-06-01T01:26:58.445Z,16.54
2016-06-01T01:27:08.460Z,16.54
2016-06-01T01:27:18.460Z,16.5
2016-06-01T01:27:28.460Z,16.61
2016-06-01T01:27:38.460Z,16.5
2016-06-01T01:27:48.479Z,16.51
2016-06-01T01:27:58.479Z,16.64
2016-06-01T01:28:08.479Z,16.59
2016-06-01T01:28:18.494Z,16.61
2016-06-01T01:28:28.494Z,16.61
2016-06-01T01:28:38.494Z,16.57
2016-06-01T01:28:48.513Z,16.61
2016-06-01T01:28:58.513Z,16.58
2016-06-01T01:29:08.513Z,16.55
2016-06-01T01:29:18.513Z,16.59
2016-06-01T01:29:28.529Z,16.55
2016-06-01T01:29:38.529Z,16.61
2016-06-01T01:29:48.546Z,16.65
2016-06-01T01:29:58.546Z,16.64
2016-06-01T01:30:08.546Z,16.61
2016-06-01T01:30:18.546Z,16.62
2016-06-01T01:30:28.546Z,16.55
2016-06-01T01:30:38.562Z,16.59
2016-06-01T01:30:48.564Z,16.57
2016-06-01T01:30:58.564Z,16.62
2016-06-01T01:31:08.626Z,16.68
2016-06-01T01:31:18.580Z,16.61
2016-06-01T01:31:28.580Z,16.62
2016-06-01T01:31:38.595Z,16.68
2016-06-01T01:31:48.598Z,16.65
2016-06-01T01:31:58.598Z,16.66
2016-06-01T01:32:08.614Z,16.61
2016-06-01T01:32:18.614Z,16.64
2016-06-01T01:32:28.614Z,16.62
2016-06-01T01:32:38.629Z,16.61
2016-06-01T01:32:48.632Z,16.61
2016-06-01T01:32:58.632Z,16.62
2016-06-01T01:33:08.648Z,16.64
2016-06-01T01:33:18.648Z,16.57
2016-06-01T01:33:28.648Z,16.55
2016-06-01T01:33:38.648Z,16.59
2016-06-01T01:33:48.667Z,16.51
2016-06-01T01:33:58.667Z,16.5
2016-06-01T01:34:08.667Z,16.51
2016-06-01T01:34:18.667Z,16.59
2016-06-01T01:34:28.682Z,16.49
2016-06-01T01:34:38.682Z,16.49
2016-06-01T01:34:48.700Z,16.47
2016-06-01T01:34:58.700Z,16.49
2016-06-01T01:35:08.700Z,16.43
2016-06-01T01:35:18.716Z,16.5
2016-06-01T01:35:28.716Z,16.43
2016-06-01T01:35:38.716Z,16.46
2016-06-01T01:35:48.719Z,16.43
2016-06-01T01:35:58.734Z,16.46
2016-06-01T01:36:08.734Z,16.54
2016-06-01T01:36:18.750Z,16.4
2016-06-01T01:36:28.750Z,16.43
2016-06-01T01:36:38.750Z,16.47
2016-06-01T01:36:48.753Z,16.37
2016-06-01T01:36:58.768Z,16.47
2016-06-01T01:37:08.768Z,16.47
2016-06-01T01:37:18.768Z,16.44
2016-06-01T01:37:28.768Z,16.57
2016-06-01T01:37:38.784Z,16.46
2016-06-01T01:37:48.787Z,16.41
2016-06-01T01:37:58.787Z,16.43
2016-06-01T01:38:08.803Z,16.54
2016-06-01T01:38:18.803Z,16.41
2016-06-01T01:38:29.303Z,16.41
2016-06-01T01:38:38.818Z,16.57
2016-06-01T01:38:48.820Z,16.47
2016-06-01T01:38:58.820Z,16.5
2016-06-01T01:39:08.820Z,16.4
2016-06-01T01:39:18.836Z,16.37
2016-06-01T01:39:28.836Z,16.39
2016-06-01T01:39:38.836Z,16.39
2016-06-01T01:39:48.855Z,16.43
2016-06-01T01:39:58.855Z,16.4
2016-06-01T01:40:08.855Z,16.41
2016-06-01T01:40:18.870Z,16.44
2016-06-01T01:40:28.870Z,16.46
2016-06-01T01:40:38.886Z,16.41
2016-06-01T01:40:48.888Z,16.41
2016-06-01T01:40:58.888Z,16.4
2016-06-01T01:41:08.888Z,16.36
2016-06-01T01:41:18.888Z,16.44
2016-06-01T01:41:28.903Z,16.46
2016-06-01T01:41:38.903Z,16.41
2016-06-01T01:41:48.906Z,16.4
2016-06-01T01:41:58.922Z,16.41
2016-06-01T01:42:08.922Z,16.4
2016-06-01T01:42:18.922Z,16.4
2016-06-01T01:42:28.938Z,16.4
2016-06-01T01:42:38.938Z,16.37
2016-06-01T01:42:48.941Z,16.37
2016-06-01T01:42:58.941Z,16.47
2016-06-01T01:43:08.956Z,16.46
2016-06-01T01:43:18.956Z,16.37
2016-06-01T01:43:28.956Z,16.41
2016-06-01T01:43:38.972Z,16.44
2016-06-01T01:43:48.975Z,16.36
2016-06-01T01:43:58.975Z,16.46
2016-06-01T01:44:08.975Z,16.37
2016-06-01T01:44:18.991Z,16.39
2016-06-01T01:44:28.991Z,16.4
2016-06-01T01:44:39.006Z,16.44
2016-06-01T01:44:49.008Z,16.39
2016-06-01T01:44:59.008Z,16.37
2016-06-01T01:45:09.024Z,16.44
2016-06-01T01:45:19.024Z,16.36
2016-06-01T01:45:29.024Z,16.4
2016-06-01T01:45:39.024Z,16.41
2016-06-01T01:45:49.042Z,16.43
2016-06-01T01:45:59.042Z,16.47
2016-06-01T01:46:09.042Z,16.41
2016-06-01T01:46:19.058Z,16.39
2016-06-01T01:46:29.058Z,16.39
2016-06-01T01:46:39.058Z,16.36
2016-06-01T01:46:49.077Z,16.43
2016-06-01T01:46:59.077Z,16.31
2016-06-01T01:47:09.077Z,16.29
2016-06-01T01:47:19.077Z,16.39
2016-06-01T01:47:29.092Z,16.46
2016-06-01T01:47:39.092Z,16.43
2016-06-01T01:47:49.095Z,16.41
2016-06-01T01:47:59.111Z,16.32
2016-06-01T01:48:09.111Z,16.36
2016-06-01T01:48:19.111Z,16.29
2016-06-01T01:48:29.127Z,16.39
2016-06-01T01:48:39.127Z,16.37
2016-06-01T01:48:49.129Z,16.39
2016-06-01T01:48:59.144Z,16.32
2016-06-01T01:49:09.144Z,16.39
2016-06-01T01:49:19.144Z,16.29
2016-06-01T01:49:29.144Z,16.29
2016-06-01T01:49:39.160Z,16.29
2016-06-01T01:49:49.163Z,16.32
2016-06-01T01:49:59.163Z,16.31
2016-06-01T01:50:09.178Z,16.26
2016-06-01T01:50:19.178Z,16.29
2016-06-01T01:50:29.178Z,16.28
2016-06-01T01:50:39.178Z,16.28
2016-06-01T01:50:49.197Z,16.29
2016-06-01T01:50:59.197Z,16.29
2016-06-01T01:51:09.197Z,16.26
2016-06-01T01:51:19.213Z,16.25
2016-06-01T01:51:29.213Z,16.31
2016-06-01T01:51:39.213Z,16.25
2016-06-01T01:51:49.230Z,16.25
2016-06-01T01:51:59.230Z,16.29
2016-06-01T01:52:09.230Z,16.34
2016-06-01T01:52:19.230Z,16.26
2016-06-01T01:52:29.246Z,16.22
2016-06-01T01:52:39.246Z,16.28
2016-06-01T01:52:49.265Z,16.29
2016-06-01T01:52:59.265Z,16.29
2016-06-01T01:53:09.265Z,16.13
2016-06-01T01:53:19.265Z,16.21
2016-06-01T01:53:29.280Z,16.21
2016-06-01T01:53:39.358Z,16.18
2016-06-01T01:53:49.751Z,16.28
2016-06-01T01:53:59.298Z,16.28
2016-06-01T01:54:09.313Z,16.26
2016-06-01T01:54:19.751Z,16.22
2016-06-01T01:54:29.673Z,16.12
2016-06-01T01:54:39.313Z,16.13
2016-06-01T01:54:49.316Z,16.25
2016-06-01T01:54:59.316Z,16.26
2016-06-01T01:55:09.348Z,16.26
2016-06-01T01:55:19.332Z,16.24
2016-06-01T01:55:29.332Z,16.24
2016-06-01T01:55:39.348Z,16.28
2016-06-01T01:55:49.351Z,16.26
2016-06-01T01:55:59.366Z,16.24
2016-06-01T01:56:09.366Z,16.22
2016-06-01T01:56:19.366Z,16.25
2016-06-01T01:56:29.366Z,16.22
2016-06-01T01:56:39.382Z,16.16
2016-06-01T01:56:49.385Z,16.21
2016-06-01T01:56:59.385Z,16.18
2016-06-01T01:57:09.385Z,16.12
2016-06-01T01:57:19.401Z,16.28
2016-06-01T01:57:29.401Z,16.24
2016-06-01T01:57:39.416Z,16.24
2016-06-01T01:57:49.418Z,16.24
2016-06-01T01:57:59.418Z,16.18
2016-06-01T01:58:09.418Z,16.22
2016-06-01T01:58:19.418Z,16.26
2016-06-01T01:58:29.434Z,16.25
2016-06-01T01:58:39.434Z,16.24
2016-06-01T01:58:49.437Z,16.24
2016-06-01T01:58:59.452Z,16.18
2016-06-01T01:59:09.452Z,16.12
2016-06-01T01:59:19.468Z,16.17
2016-06-01T01:59:29.468Z,16.21
2016-06-01T01:59:39.468Z,16.24
2016-06-01T01:59:49.471Z,16.21
2016-06-01T01:59:59.487Z,16.21
2016-06-01T02:00:09.487Z,16.21
2016-06-01T02:00:19.487Z,16.26
2016-06-01T02:00:29.487Z,16.25
2016-06-01T02:00:39.502Z,16.22
2016-06-01T02:00:49.504Z,16.22
2016-06-01T02:00:59.504Z,16.21
2016-06-01T02:01:09.520Z,16.21
2016-06-01T02:01:19.520Z,16.25
2016-06-01T02:01:29.520Z,16.21
2016-06-01T02:01:39.536Z,16.06
2016-06-01T02:01:49.539Z,16.16
2016-06-01T02:01:59.539Z,16.22
2016-06-01T02:02:09.554Z,16.21
2016-06-01T02:02:19.554Z,16.24
2016-06-01T02:02:29.554Z,16.1
2016-06-01T02:02:39.554Z,16.08
2016-06-01T02:02:49.572Z,16.16
2016-06-01T02:02:59.572Z,16.26
2016-06-01T02:03:09.587Z,16.21
2016-06-01T02:03:19.603Z,16.18
2016-06-01T02:03:29.587Z,16.16
2016-06-01T02:03:39.587Z,16.12
2016-06-01T02:03:49.607Z,16.16
2016-06-01T02:03:59.607Z,16.12
2016-06-01T02:04:09.607Z,16.13
2016-06-01T02:04:19.623Z,16.18
2016-06-01T02:04:29.623Z,16.22
2016-06-01T02:04:39.623Z,16.25
2016-06-01T02:04:49.640Z,16.18
2016-06-01T02:04:59.640Z,16.21
2016-06-01T02:05:09.640Z,16.22
2016-06-01T02:05:19.640Z,16.22
2016-06-01T02:05:29.640Z,16.24
2016-06-01T02:05:39.656Z,16.24
2016-06-01T02:05:49.675Z,16.24
2016-06-01T02:05:59.659Z,16.26
2016-06-01T02:06:09.675Z,16.26
2016-06-01T02:06:19.690Z,16.26
2016-06-01T02:06:29.675Z,16.24
2016-06-01T02:06:39.690Z,16.25
2016-06-01T02:06:49.693Z,16.26
2016-06-01T02:06:59.693Z,16.25
2016-06-01T02:07:09.693Z,16.24
2016-06-01T02:07:19.709Z,16.25
2016-06-01T02:07:29.709Z,16.28
2016-06-01T02:07:39.724Z,16.21
2016-06-01T02:07:49.726Z,16.21
2016-06-01T02:07:59.726Z,16.25
2016-06-01T02:08:09.726Z,16.16
2016-06-01T02:08:19.976Z,16.29
2016-06-01T02:08:30.055Z,16.26
2016-06-01T02:08:39.742Z,16.28
2016-06-01T02:08:49.760Z,16.25
2016-06-01T02:09:00.416Z,16.32
2016-06-01T02:09:09.760Z,16.24